Terminal Aerodrome Forecast
Issued by NWS Austin/San Antonio, TX

Home | Current Version | Previous Version | Text Only | Print | Product List | Glossary On
Versions: 1 2 3 4 5 6 7 8 9 10 11 12 13 14 15 16 17 18 19
501
FTUS44 KEWX 211125
TAFAUS
TAF
KAUS 211125Z 2112/2218 17005KT P6SM BKN015 OVC020
     FM211300 17005KT 6SM BR OVC007
     FM211500 18010KT P6SM BKN015
     FM211800 18012KT P6SM SCT025 BKN050
     FM220800 20005KT 4SM TSRA BKN015CB
     FM221200 33010KT P6SM SCT040
     FM221500 36015G25KT P6SM SCT050=

USA.gov is the U.S. government's official web portal to all federal, state and local government web resources and services.